createdAt,value
2022-12-28T00:01:19.470Z,11.40
2022-12-28T00:03:48.149Z,9.45
2022-12-28T00:06:18.163Z,9.13
2022-12-28T00:08:46.235Z,8.80
2022-12-28T00:11:28.049Z,10.57
2022-12-28T00:14:00.071Z,8.68
2022-12-28T00:16:29.971Z,9.40
2022-12-28T00:18:58.972Z,10.27
2022-12-28T00:21:28.617Z,8.30
2022-12-28T00:23:58.401Z,8.83
2022-12-28T00:26:27.690Z,9.43
2022-12-28T00:28:59.989Z,9.23
2022-12-28T00:31:31.411Z,10.52
2022-12-28T00:33:59.083Z,11.57
2022-12-28T00:37:10.586Z,12.50
2022-12-28T00:39:15.816Z,14.88
2022-12-28T00:41:43.763Z,13.73
2022-12-28T00:44:11.431Z,11.50
2022-12-28T00:46:39.193Z,11.00
2022-12-28T00:49:06.838Z,12.45
2022-12-28T00:51:36.262Z,10.25
2022-12-28T00:54:03.973Z,10.18
2022-12-28T00:56:31.605Z,13.85
2022-12-28T00:59:00.760Z,15.55
2022-12-28T01:01:30.239Z,12.50
2022-12-28T01:03:59.440Z,10.10
2022-12-28T01:06:28.448Z,12.05
2022-12-28T01:08:57.426Z,13.18
2022-12-28T01:11:27.476Z,14.98
2022-12-28T01:13:56.722Z,15.73
2022-12-28T01:16:26.707Z,14.80
2022-12-28T01:18:56.486Z,17.58
2022-12-28T01:21:29.379Z,15.35
2022-12-28T01:24:00.536Z,16.60
2022-12-28T01:26:29.090Z,18.40
2022-12-28T01:28:56.954Z,18.70
2022-12-28T01:31:24.575Z,16.77
2022-12-28T01:33:52.486Z,17.33
2022-12-28T01:36:22.451Z,17.98
2022-12-28T01:38:53.858Z,19.80
2022-12-28T01:41:24.578Z,17.65
2022-12-28T01:44:25.677Z,17.40
2022-12-28T01:46:57.116Z,17.05
2022-12-28T01:49:29.672Z,14.13
2022-12-28T01:52:03.452Z,17.50
2022-12-28T01:54:35.591Z,14.35
2022-12-28T01:57:05.239Z,17.10
2022-12-28T01:59:38.737Z,15.07
2022-12-28T02:02:06.676Z,17.60
2022-12-28T02:04:34.484Z,16.27
2022-12-28T02:07:02.393Z,15.93
2022-12-28T02:09:36.929Z,15.38
2022-12-28T02:12:07.699Z,14.93
2022-12-28T02:14:36.089Z,14.25
2022-12-28T02:17:03.790Z,17.45
2022-12-28T02:19:39.093Z,16.85
2022-12-28T02:22:36.346Z,13.80
2022-12-28T02:25:34.050Z,14.50
2022-12-28T02:28:16.003Z,16.77
2022-12-28T02:30:51.056Z,15.60
2022-12-28T02:33:24.648Z,16.75
2022-12-28T02:35:58.334Z,22.00
2022-12-28T02:38:32.753Z,25.57
2022-12-28T02:41:06.076Z,21.98
2022-12-28T02:43:34.942Z,21.23
2022-12-28T02:46:29.150Z,17.83
2022-12-28T02:49:29.201Z,14.00
2022-12-28T02:52:04.490Z,15.57
2022-12-28T02:55:24.354Z,14.93
2022-12-28T02:58:07.042Z,14.53
2022-12-28T03:00:45.499Z,17.00
2022-12-28T03:03:23.693Z,13.60
2022-12-28T03:06:19.552Z,15.85
2022-12-28T03:08:56.836Z,14.60
2022-12-28T03:11:31.274Z,12.30
2022-12-28T03:14:04.009Z,11.77
2022-12-28T03:16:57.259Z,11.95
2022-12-28T03:19:48.106Z,11.18
2022-12-28T03:22:34.311Z,17.52
2022-12-28T03:25:25.766Z,13.75
2022-12-28T03:28:12.185Z,12.82
2022-12-28T03:31:01.561Z,10.73
2022-12-28T03:33:29.427Z,13.82
2022-12-28T03:36:04.801Z,11.70
2022-12-28T03:38:42.256Z,14.32
2022-12-28T03:41:14.638Z,11.55
2022-12-28T03:43:47.255Z,11.50
2022-12-28T03:46:20.658Z,10.75
2022-12-28T03:48:49.615Z,10.55
2022-12-28T03:51:23.882Z,11.40
2022-12-28T03:53:52.120Z,11.97
2022-12-28T03:56:21.698Z,10.65
2022-12-28T03:58:49.833Z,10.30
2022-12-28T04:01:17.492Z,10.90
2022-12-28T04:03:45.398Z,12.63
2022-12-28T04:06:15.960Z,12.27
2022-12-28T04:08:45.198Z,11.80
2022-12-28T04:11:13.126Z,11.17
2022-12-28T04:13:40.760Z,13.93
2022-12-28T04:16:15.337Z,12.07
2022-12-28T04:18:43.561Z,11.63
2022-12-28T04:21:12.345Z,11.40
2022-12-28T04:23:40.045Z,12.73
2022-12-28T04:26:11.450Z,11.80
2022-12-28T04:28:39.566Z,13.00
2022-12-28T04:31:08.921Z,13.20
2022-12-28T04:33:38.161Z,11.63
2022-12-28T04:36:06.860Z,12.20
2022-12-28T04:38:34.557Z,12.43
2022-12-28T04:41:03.067Z,10.43
2022-12-28T04:43:32.165Z,10.40
2022-12-28T04:46:01.288Z,9.73
2022-12-28T04:48:29.357Z,10.25
2022-12-28T04:50:57.628Z,12.15
2022-12-28T04:53:25.270Z,10.50
2022-12-28T04:55:53.852Z,12.18
2022-12-28T04:58:21.799Z,11.00
2022-12-28T05:00:50.932Z,10.02
2022-12-28T05:03:18.563Z,9.63
2022-12-28T05:05:46.225Z,8.55
2022-12-28T05:08:13.841Z,12.88
2022-12-28T05:10:41.489Z,9.97
2022-12-28T05:13:09.117Z,9.95
2022-12-28T05:15:38.852Z,9.60
2022-12-28T05:18:07.964Z,12.05
2022-12-28T05:20:35.556Z,10.93
2022-12-28T05:23:03.175Z,9.70
2022-12-28T05:25:32.730Z,8.95
2022-12-28T05:28:00.491Z,10.25
2022-12-28T05:30:28.165Z,10.35
2022-12-28T05:32:55.763Z,12.65
2022-12-28T05:35:24.749Z,13.98
2022-12-28T05:37:52.420Z,14.57
2022-12-28T05:40:20.058Z,10.13
2022-12-28T05:42:51.529Z,9.80
2022-12-28T05:45:20.016Z,9.52
2022-12-28T05:47:47.800Z,13.52
2022-12-28T05:50:15.500Z,8.43
2022-12-28T05:52:44.521Z,9.18
2022-12-28T05:55:12.251Z,10.43
2022-12-28T05:57:39.896Z,12.98
2022-12-28T06:00:08.998Z,10.68
2022-12-28T06:02:36.692Z,8.63
2022-12-28T06:05:04.687Z,7.63
2022-12-28T06:07:32.324Z,10.02
2022-12-28T06:10:01.236Z,10.70
2022-12-28T06:12:28.937Z,11.33
2022-12-28T06:14:56.673Z,9.68
2022-12-28T06:17:24.376Z,8.55
2022-12-28T06:19:52.003Z,7.65
2022-12-28T06:22:19.579Z,9.23
2022-12-28T06:24:47.379Z,8.07
2022-12-28T06:27:16.349Z,6.55
2022-12-28T06:29:43.997Z,7.00
2022-12-28T06:32:11.622Z,9.73
2022-12-28T06:34:39.324Z,10.77
2022-12-28T06:37:06.909Z,7.53
2022-12-28T06:39:34.571Z,8.50
2022-12-28T06:42:02.310Z,7.50
2022-12-28T06:44:31.216Z,7.50
2022-12-28T06:46:58.754Z,7.70
2022-12-28T06:49:26.291Z,7.80
2022-12-28T06:51:53.899Z,8.35
2022-12-28T06:54:21.468Z,6.35
2022-12-28T06:56:49.078Z,5.55
2022-12-28T06:59:16.634Z,9.57
2022-12-28T07:01:46.061Z,7.03
2022-12-28T07:04:13.946Z,7.45
2022-12-28T07:06:43.694Z,7.60
2022-12-28T07:09:13.339Z,5.93
2022-12-28T07:11:41.248Z,8.77
2022-12-28T07:14:09.389Z,6.43
2022-12-28T07:19:04.917Z,6.97
2022-12-28T07:21:34.517Z,8.75
2022-12-28T07:24:02.439Z,6.88
2022-12-28T07:26:32.087Z,7.20
2022-12-28T07:29:01.849Z,5.57
2022-12-28T07:31:33.743Z,6.18
2022-12-28T07:34:04.725Z,7.63
2022-12-28T07:36:33.729Z,6.18
2022-12-28T07:39:01.944Z,5.35
2022-12-28T07:41:32.739Z,7.25
2022-12-28T07:44:01.071Z,7.65
2022-12-28T07:46:30.502Z,7.33
2022-12-28T07:48:58.397Z,7.15
2022-12-28T07:51:29.455Z,7.60
2022-12-28T07:53:58.557Z,11.15
2022-12-28T07:56:27.719Z,8.93
2022-12-28T07:58:57.237Z,8.63
2022-12-28T08:01:26.700Z,7.35
2022-12-28T08:03:55.922Z,8.25
2022-12-28T08:06:23.939Z,6.93
2022-12-28T08:08:54.853Z,7.18
2022-12-28T08:11:24.850Z,7.85
2022-12-28T08:13:54.554Z,7.03
2022-12-28T08:16:24.372Z,6.68
2022-12-28T08:18:52.801Z,7.32
2022-12-28T08:21:22.426Z,8.48
2022-12-28T08:23:50.527Z,6.70
2022-12-28T08:26:21.656Z,6.97
2022-12-28T08:28:51.429Z,7.38
2022-12-28T08:31:22.911Z,6.75
2022-12-28T08:33:50.875Z,5.28
2022-12-28T08:36:18.656Z,5.32
2022-12-28T08:38:46.970Z,6.80
2022-12-28T08:41:16.804Z,5.60
2022-12-28T08:43:46.404Z,5.57
2022-12-28T08:46:16.473Z,5.33
2022-12-28T08:48:44.676Z,5.95
2022-12-28T08:51:14.586Z,6.30
2022-12-28T08:53:42.587Z,5.80
2022-12-28T08:56:13.538Z,7.03
2022-12-28T08:58:42.589Z,5.97
2022-12-28T09:01:13.593Z,5.07
2022-12-28T09:03:43.239Z,4.25
2022-12-28T09:06:12.967Z,5.53
2022-12-28T09:08:42.585Z,6.73
2022-12-28T09:11:13.149Z,6.22
2022-12-28T09:13:41.401Z,5.40
2022-12-28T09:16:12.761Z,6.15
2022-12-28T09:18:42.153Z,4.77
2022-12-28T09:21:12.004Z,7.57
2022-12-28T09:23:39.915Z,3.70
2022-12-28T09:26:08.670Z,14.50
2022-12-28T09:28:36.568Z,5.30
2022-12-28T09:31:05.330Z,4.37
2022-12-28T09:34:33.771Z,5.43
2022-12-28T09:36:42.949Z,5.82
2022-12-28T09:39:13.603Z,4.70
2022-12-28T09:41:48.125Z,3.70
2022-12-28T09:44:35.376Z,2.38
2022-12-28T09:47:12.409Z,2.90
2022-12-28T09:49:46.539Z,4.50
2022-12-28T09:52:28.116Z,3.67
2022-12-28T09:54:58.104Z,2.40
2022-12-28T09:57:33.822Z,4.13
2022-12-28T10:00:01.871Z,3.15
2022-12-28T10:02:34.598Z,4.53
2022-12-28T10:05:03.674Z,4.35
2022-12-28T10:07:31.354Z,4.80
2022-12-28T10:09:59.688Z,2.45
2022-12-28T10:12:27.395Z,3.63
2022-12-28T10:14:55.384Z,3.65
2022-12-28T10:17:28.323Z,3.83
2022-12-28T10:19:58.400Z,4.22
2022-12-28T10:22:35.574Z,4.60
2022-12-28T10:25:03.295Z,2.23
2022-12-28T10:27:32.678Z,4.88
2022-12-28T10:30:02.969Z,2.72
2022-12-28T10:32:49.431Z,3.75
2022-12-28T10:35:24.465Z,4.22
2022-12-28T10:37:58.467Z,3.08
2022-12-28T10:40:29.216Z,3.17
2022-12-28T10:42:57.682Z,4.47
2022-12-28T10:45:34.646Z,4.80
2022-12-28T10:48:03.441Z,7.27
2022-12-28T10:50:52.671Z,5.18
2022-12-28T10:53:27.201Z,3.13
2022-12-28T10:56:21.645Z,3.83
2022-12-28T10:58:50.957Z,7.32
2022-12-28T11:01:21.281Z,3.95
2022-12-28T11:04:01.160Z,4.20
2022-12-28T11:06:30.256Z,3.88
2022-12-28T11:09:06.561Z,2.88
2022-12-28T11:11:34.939Z,4.88
2022-12-28T11:14:08.068Z,4.70
2022-12-28T11:16:38.552Z,2.00
2022-12-28T11:19:06.381Z,4.85
2022-12-28T11:21:34.954Z,2.50
2022-12-28T11:24:05.421Z,4.32
2022-12-28T11:26:34.156Z,2.03
2022-12-28T11:29:02.787Z,5.27
2022-12-28T11:31:35.604Z,3.28
2022-12-28T11:34:06.207Z,3.97
2022-12-28T11:36:40.072Z,2.87
2022-12-28T11:39:46.339Z,2.53
2022-12-28T11:42:39.397Z,5.10
2022-12-28T11:45:14.331Z,6.30
2022-12-28T11:47:41.972Z,4.32
2022-12-28T11:50:50.626Z,7.40
2022-12-28T11:53:24.955Z,6.55
2022-12-28T11:56:08.737Z,11.57
2022-12-28T11:59:04.673Z,12.60
2022-12-28T12:01:53.391Z,2.40
2022-12-28T12:04:33.351Z,4.97
2022-12-28T12:07:17.040Z,3.05
2022-12-28T12:09:46.545Z,3.47
2022-12-28T12:12:53.302Z,3.43
2022-12-28T12:15:26.344Z,3.75
2022-12-28T12:17:58.650Z,3.55
2022-12-28T12:20:35.218Z,3.40
2022-12-28T12:23:07.249Z,6.20
2022-12-28T12:25:40.073Z,5.05
2022-12-28T12:28:17.837Z,5.63
2022-12-28T12:30:47.116Z,3.72
2022-12-28T12:33:19.517Z,2.03
2022-12-28T12:36:01.246Z,2.83
2022-12-28T12:38:45.073Z,3.60
2022-12-28T12:41:25.138Z,2.38
2022-12-28T12:44:10.170Z,2.53
2022-12-28T12:47:06.055Z,3.35
2022-12-28T12:50:10.217Z,1.50
2022-12-28T12:52:43.308Z,3.78
2022-12-28T12:55:22.637Z,2.55
2022-12-28T12:57:59.488Z,3.38
2022-12-28T13:00:41.540Z,2.50
2022-12-28T13:03:25.179Z,1.38
2022-12-28T13:05:55.387Z,2.67
2022-12-28T13:08:27.433Z,2.20
2022-12-28T13:10:56.347Z,2.27
2022-12-28T13:13:30.407Z,1.83
2022-12-28T13:16:02.874Z,2.13
2022-12-28T13:18:46.628Z,1.35
2022-12-28T13:21:20.534Z,2.40
2022-12-28T13:23:48.577Z,1.80
2022-12-28T13:26:17.284Z,0.93
2022-12-28T13:28:51.926Z,2.33
2022-12-28T13:31:23.501Z,2.00
2022-12-28T13:33:59.476Z,3.38
2022-12-28T13:36:27.806Z,1.50
2022-12-28T13:39:05.014Z,1.00
2022-12-28T13:41:36.027Z,1.80
2022-12-28T13:44:22.869Z,1.97
2022-12-28T13:46:57.390Z,3.55
2022-12-28T13:49:26.855Z,4.57
2022-12-28T13:51:56.308Z,1.92
2022-12-28T13:54:25.717Z,1.63
2022-12-28T13:57:14.420Z,5.22
2022-12-28T13:59:44.571Z,4.18
2022-12-28T14:02:18.372Z,3.35
2022-12-28T14:04:54.202Z,7.13
2022-12-28T14:07:25.898Z,2.20
2022-12-28T14:09:54.778Z,2.78
2022-12-28T14:12:22.864Z,6.22
2022-12-28T14:14:52.126Z,4.20
2022-12-28T14:17:21.983Z,1.77
2022-12-28T14:19:50.021Z,3.80
2022-12-28T14:22:32.142Z,2.67
2022-12-28T14:25:04.959Z,2.70
2022-12-28T14:27:36.742Z,4.85
2022-12-28T14:30:05.812Z,2.70
2022-12-28T14:32:42.257Z,4.70
2022-12-28T14:35:18.819Z,7.43
2022-12-28T14:37:50.896Z,5.28
2022-12-28T14:40:26.586Z,2.63
2022-12-28T14:42:56.110Z,2.38
2022-12-28T14:46:06.918Z,2.00
2022-12-28T14:48:33.689Z,4.03
2022-12-28T14:51:03.459Z,5.13
2022-12-28T14:53:31.572Z,4.68
2022-12-28T14:56:07.480Z,5.65
2022-12-28T14:58:47.851Z,1.70
2022-12-28T15:01:18.455Z,3.20
2022-12-28T15:03:52.348Z,3.08
2022-12-28T15:06:20.804Z,3.87
2022-12-28T15:08:50.038Z,2.97
2022-12-28T15:11:18.552Z,2.67
2022-12-28T15:13:46.297Z,3.07
2022-12-28T15:16:14.749Z,3.28
2022-12-28T15:18:44.949Z,2.50
2022-12-28T15:21:16.649Z,3.70
2022-12-28T15:23:45.536Z,2.45
2022-12-28T15:26:14.303Z,3.60
2022-12-28T15:28:42.129Z,3.28
2022-12-28T15:31:12.536Z,3.72
2022-12-28T15:33:40.573Z,4.10
2022-12-28T15:36:17.032Z,4.15
2022-12-28T15:38:46.963Z,5.63
2022-12-28T15:41:32.129Z,5.07
2022-12-28T15:43:59.741Z,5.05
2022-12-28T15:46:27.425Z,4.53
2022-12-28T15:48:55.239Z,3.88
2022-12-28T15:51:22.871Z,2.92
2022-12-28T15:53:51.729Z,4.78
2022-12-28T15:56:22.016Z,3.97
2022-12-28T15:58:49.660Z,3.13
2022-12-28T16:01:17.385Z,3.42
2022-12-28T16:03:45.198Z,4.57
2022-12-28T16:06:13.929Z,3.88
2022-12-28T16:08:41.637Z,5.43
2022-12-28T16:11:11.794Z,4.25
2022-12-28T16:13:39.407Z,2.30
2022-12-28T16:16:07.612Z,3.78
2022-12-28T16:18:35.705Z,4.15
2022-12-28T16:21:04.493Z,5.75
2022-12-28T16:23:33.137Z,3.72
2022-12-28T16:26:01.004Z,3.27
2022-12-28T16:28:30.694Z,5.28
2022-12-28T16:30:58.745Z,10.88
2022-12-28T16:33:27.072Z,6.03
2022-12-28T16:35:59.559Z,4.53
2022-12-28T16:38:29.769Z,3.83
2022-12-28T16:40:57.891Z,4.68
2022-12-28T16:43:25.475Z,3.75
2022-12-28T16:45:54.452Z,4.78
2022-12-28T16:48:22.266Z,4.40
2022-12-28T16:50:58.616Z,2.43
2022-12-28T16:53:26.541Z,8.27
2022-12-28T16:55:54.295Z,5.40
2022-12-28T16:58:22.009Z,4.90
2022-12-28T17:00:49.526Z,7.45
2022-12-28T17:03:18.557Z,2.88
2022-12-28T17:05:49.597Z,4.15
2022-12-28T17:08:17.674Z,4.90
2022-12-28T17:10:45.899Z,4.07
2022-12-28T17:13:13.485Z,4.75
2022-12-28T17:15:42.143Z,8.57
2022-12-28T17:18:10.541Z,5.57
2022-12-28T17:20:40.408Z,7.03
2022-12-28T17:23:08.524Z,9.88
2022-12-28T17:25:37.040Z,21.50
2022-12-28T17:28:05.152Z,12.05
2022-12-28T17:30:33.027Z,7.78
2022-12-28T17:33:01.396Z,10.45
2022-12-28T17:35:29.015Z,19.73
2022-12-28T17:37:57.909Z,12.23
2022-12-28T17:40:25.459Z,5.82
2022-12-28T17:42:53.012Z,5.68
2022-12-28T17:45:20.729Z,4.60
2022-12-28T17:47:48.343Z,6.00
2022-12-28T17:50:18.090Z,4.35
2022-12-28T17:52:45.996Z,4.75
2022-12-28T17:55:14.976Z,2.65
2022-12-28T17:57:42.650Z,3.50
2022-12-28T18:00:12.649Z,2.65
2022-12-28T18:02:40.472Z,2.90
2022-12-28T18:05:08.916Z,2.17
2022-12-28T18:07:36.621Z,4.90
2022-12-28T18:10:04.822Z,3.53
2022-12-28T18:12:33.741Z,3.38
2022-12-28T18:15:01.358Z,3.03
2022-12-28T18:17:29.154Z,4.78
2022-12-28T18:19:56.894Z,8.15
2022-12-28T18:22:24.750Z,4.40
2022-12-28T18:24:53.441Z,7.13
2022-12-28T18:27:21.564Z,10.27
2022-12-28T18:29:52.069Z,5.82
2022-12-28T18:32:19.819Z,3.08
2022-12-28T18:34:47.688Z,3.40
2022-12-28T18:37:15.323Z,3.10
2022-12-28T18:39:42.906Z,2.83
2022-12-28T18:42:10.408Z,4.55
2022-12-28T18:44:38.145Z,3.78
2022-12-28T18:47:07.103Z,5.07
2022-12-28T18:49:34.590Z,5.22
2022-12-28T18:52:02.314Z,4.68
2022-12-28T18:54:29.928Z,4.77
2022-12-28T18:56:57.539Z,5.05
2022-12-28T18:59:25.351Z,4.68
2022-12-28T19:02:06.544Z,3.90
2022-12-28T19:04:36.306Z,5.00
2022-12-28T19:07:04.277Z,5.35
2022-12-28T19:09:31.913Z,5.25
2022-12-28T19:12:00.051Z,3.72
2022-12-28T19:14:27.824Z,3.13
2022-12-28T19:16:55.380Z,6.32
2022-12-28T19:19:22.940Z,3.17
2022-12-28T19:21:58.492Z,4.55
2022-12-28T19:24:26.626Z,3.67
2022-12-28T19:26:54.602Z,3.43
2022-12-28T19:29:22.386Z,3.27
2022-12-28T19:31:50.165Z,18.02
2022-12-28T19:34:18.314Z,11.10
2022-12-28T19:36:46.099Z,6.32
2022-12-28T19:39:15.122Z,5.97
2022-12-28T19:41:42.911Z,4.43
2022-12-28T19:44:10.919Z,6.38
2022-12-28T19:46:39.168Z,4.57
2022-12-28T19:49:06.894Z,4.45
2022-12-28T19:51:34.952Z,4.77
2022-12-28T19:54:03.115Z,4.60
2022-12-28T19:56:32.654Z,3.97
2022-12-28T19:59:06.566Z,4.45
2022-12-28T20:01:36.576Z,5.18
2022-12-28T20:04:12.485Z,3.00
2022-12-28T20:06:42.617Z,4.88
2022-12-28T20:09:10.981Z,3.72
2022-12-28T20:11:40.613Z,5.80
2022-12-28T20:16:52.049Z,4.27
2022-12-28T20:19:19.800Z,5.70
2022-12-28T20:21:49.350Z,4.15
2022-12-28T20:24:17.836Z,5.47
2022-12-28T20:26:45.486Z,3.13
2022-12-28T20:29:16.140Z,4.28
2022-12-28T20:31:43.944Z,4.43
2022-12-28T20:34:13.005Z,3.95
2022-12-28T20:36:40.742Z,3.92
2022-12-28T20:39:08.446Z,3.83
2022-12-28T20:41:54.089Z,4.60
2022-12-28T20:44:25.501Z,3.65
2022-12-28T20:46:53.612Z,3.78
2022-12-28T20:49:22.846Z,4.55
2022-12-28T20:51:50.642Z,4.95
2022-12-28T20:54:19.391Z,4.00
2022-12-28T20:56:54.000Z,4.45
2022-12-28T20:59:22.782Z,3.85
2022-12-28T21:01:50.571Z,3.28
2022-12-28T21:04:18.336Z,4.22
2022-12-28T21:06:47.342Z,3.80
2022-12-28T21:09:14.959Z,3.60
2022-12-28T21:11:42.480Z,3.50
2022-12-28T21:14:10.050Z,5.25
2022-12-28T21:16:37.995Z,3.63
2022-12-28T21:19:05.811Z,3.78
2022-12-28T21:21:33.393Z,4.28
2022-12-28T21:24:03.985Z,3.97
2022-12-28T21:26:31.646Z,4.68
2022-12-28T21:29:00.059Z,5.78
2022-12-28T21:31:27.754Z,4.40
2022-12-28T21:33:55.742Z,5.57
2022-12-28T21:36:23.454Z,4.63
2022-12-28T21:38:51.228Z,3.92
2022-12-28T21:41:42.420Z,4.07
2022-12-28T21:44:12.888Z,4.83
2022-12-28T21:46:41.447Z,5.00
2022-12-28T21:49:09.789Z,5.65
2022-12-28T21:51:38.733Z,3.88
2022-12-28T21:54:08.020Z,4.67
2022-12-28T21:56:37.389Z,4.57
2022-12-28T21:59:06.110Z,3.40
2022-12-28T22:01:51.551Z,5.88
2022-12-28T22:04:38.697Z,5.53
2022-12-28T22:07:07.566Z,4.90
2022-12-28T22:09:53.898Z,5.30
2022-12-28T22:12:37.646Z,3.78
2022-12-28T22:15:26.150Z,4.50
2022-12-28T22:17:55.808Z,3.97
2022-12-28T22:20:24.025Z,5.20
2022-12-28T22:22:51.620Z,4.55
2022-12-28T22:25:19.337Z,3.63
2022-12-28T22:27:48.283Z,5.07
2022-12-28T22:30:15.996Z,3.33
2022-12-28T22:32:43.873Z,3.63
2022-12-28T22:35:11.677Z,4.07
2022-12-28T22:37:39.376Z,4.78
2022-12-28T22:40:07.838Z,4.65
2022-12-28T22:42:36.167Z,3.17
2022-12-28T22:45:05.488Z,4.13
2022-12-28T22:47:33.066Z,4.85
2022-12-28T22:50:00.826Z,4.03
2022-12-28T22:52:28.575Z,7.13
2022-12-28T22:54:56.199Z,4.03
2022-12-28T22:57:23.805Z,3.38
2022-12-28T22:59:51.432Z,4.45
2022-12-28T23:02:20.657Z,5.90
2022-12-28T23:04:48.384Z,4.88
2022-12-28T23:07:16.008Z,2.85
2022-12-28T23:09:43.553Z,3.00
2022-12-28T23:12:11.186Z,4.18
2022-12-28T23:14:56.292Z,3.78
2022-12-28T23:17:26.655Z,3.65
2022-12-28T23:20:14.236Z,2.17
2022-12-28T23:22:59.369Z,3.83
2022-12-28T23:25:55.776Z,4.95
2022-12-28T23:28:23.397Z,4.97
2022-12-28T23:30:52.398Z,3.15
2022-12-28T23:33:21.423Z,2.15
2022-12-28T23:35:49.411Z,3.60
2022-12-28T23:38:17.007Z,3.17
2022-12-28T23:40:44.602Z,4.72
2022-12-28T23:43:12.255Z,2.50
2022-12-28T23:45:39.794Z,4.28
2022-12-28T23:48:07.473Z,2.97
2022-12-28T23:50:36.385Z,4.75
2022-12-28T23:53:03.946Z,3.97
2022-12-28T23:55:31.503Z,2.53
2022-12-28T23:57:59.135Z,2.78
